Time;durP1;ratioP1;P1;durP2;ratioP2;P2;SDS_P1;SDS_P2;PMS_P1;PMS_P2;Temp;Humidity;BMP_temperature;BMP_pressure;BME280_temperature;BME280_humidity;BME280_pressure;Samples;Min_cycle;Max_cycle;Signal;HPM_P1;HPM_P2
2023/05/13 00:00:31;;;;;;;;;23.00;22.80;;;;;10.38;59.83;99497.78;5005406;28;8940;-75
2023/05/13 00:03:11;;;;;;;;;29.40;24.80;;;;;10.29;60.24;99492.72;4971407;28;8853;-75
2023/05/13 00:05:40;;;;;;;;;26.20;23.60;;;;;10.29;60.21;99495.34;4970019;28;8860;-74
2023/05/13 00:08:11;;;;;;;;;26.20;24.00;;;;;10.25;60.28;99502.41;4969963;28;8970;-75
2023/05/13 00:10:39;;;;;;;;;23.00;23.00;;;;;10.22;60.36;99505.13;4978496;28;8862;-74
2023/05/13 00:13:08;;;;;;;;;23.80;23.00;;;;;10.32;60.04;99505.81;4972786;28;8854;-74
2023/05/13 00:15:37;;;;;;;;;23.00;22.80;;;;;10.27;60.34;99498.00;4990233;28;8862;-75
2023/05/13 00:18:06;;;;;;;;;22.20;22.20;;;;;10.16;60.65;99502.59;5047494;28;9622;-77
2023/05/13 00:20:35;;;;;;;;;26.00;23.80;;;;;10.07;60.94;99497.56;5048438;28;8891;-75
2023/05/13 00:23:04;;;;;;;;;21.80;21.80;;;;;10.10;60.85;99500.97;5049846;28;8897;-76
2023/05/13 00:25:34;;;;;;;;;20.20;20.20;;;;;10.13;60.79;99500.06;5050120;28;8944;-75
2023/05/13 00:28:03;;;;;;;;;22.00;21.60;;;;;10.12;60.76;99499.19;5016356;28;8931;-75
2023/05/13 00:30:32;;;;;;;;;22.80;22.60;;;;;10.11;60.82;99505.34;5067462;28;8839;-74
2023/05/13 00:33:01;;;;;;;;;22.80;20.20;;;;;10.18;60.43;99506.94;5058429;28;8844;-76
2023/05/13 00:35:30;;;;;;;;;23.20;21.60;;;;;10.24;60.13;99505.09;5062762;28;8883;-75
2023/05/13 00:37:59;;;;;;;;;23.80;23.00;;;;;10.13;60.28;99507.94;5062994;28;8833;-76
2023/05/13 00:40:27;;;;;;;;;21.60;20.00;;;;;10.20;60.16;99512.19;5055242;28;8866;-74
2023/05/13 00:42:57;;;;;;;;;25.80;22.80;;;;;10.24;59.93;99503.34;5067345;28;8838;-74
2023/05/13 00:45:26;;;;;;;;;19.60;19.40;;;;;10.25;59.80;99512.06;5066099;28;8850;-75
2023/05/13 00:47:55;;;;;;;;;21.00;20.00;;;;;10.26;59.95;99508.56;5032030;28;8866;-75
2023/05/13 00:50:24;;;;;;;;;22.40;21.60;;;;;10.31;59.46;99517.19;5058133;28;8877;-75
2023/05/13 00:52:54;;;;;;;;;22.20;21.60;;;;;10.35;59.62;99511.88;5066189;28;9592;-76
2023/05/13 00:55:22;;;;;;;;;20.40;20.40;;;;;10.40;59.46;99524.88;5066077;28;8866;-76
2023/05/13 00:57:51;;;;;;;;;20.80;19.60;;;;;10.37;59.43;99519.72;5066061;28;9026;-76
2023/05/13 01:00:21;;;;;;;;;22.60;21.00;;;;;10.40;59.39;99530.16;5065585;28;8874;-75
2023/05/13 01:02:56;;;;;;;;;20.60;20.60;;;;;10.46;59.01;99530.00;5071366;28;8870;-76
2023/05/13 01:05:37;;;;;;;;;14.00;14.00;;;;;10.46;58.68;99526.53;5073088;28;8897;-77
2023/05/13 01:08:16;;;;;;;;;18.40;17.80;;;;;10.56;58.61;99542.09;5046003;28;8841;-75
2023/05/13 01:10:49;;;;;;;;;23.20;20.40;;;;;10.53;58.52;99536.88;5045974;28;8991;-74
2023/05/13 01:13:23;;;;;;;;;21.80;20.60;;;;;10.64;58.49;99543.69;5061692;28;8850;-74
2023/05/13 01:16:06;;;;;;;;;19.00;17.00;;;;;10.66;58.26;99541.91;5049141;28;8826;-75
2023/05/13 01:18:38;;;;;;;;;21.20;19.20;;;;;10.67;57.73;99552.38;5065641;28;8873;-75
2023/05/13 01:21:08;;;;;;;;;19.00;18.80;;;;;10.77;57.54;99553.94;5062822;28;9104;-75
2023/05/13 01:23:38;;;;;;;;;21.60;20.40;;;;;10.82;57.64;99551.19;5047448;28;8863;-75
2023/05/13 01:26:07;;;;;;;;;15.60;15.60;;;;;10.93;56.87;99553.59;5050065;28;8877;-76
2023/05/13 01:28:37;;;;;;;;;17.20;15.80;;;;;10.92;56.99;99551.88;5051340;28;8879;-76
2023/05/13 01:31:09;;;;;;;;;19.40;19.40;;;;;10.86;57.04;99555.50;5031241;28;9013;-74
2023/05/13 01:33:40;;;;;;;;;16.60;15.60;;;;;11.00;56.99;99551.69;5030999;28;8858;-74
2023/05/13 01:36:10;;;;;;;;;16.80;15.60;;;;;10.98;56.97;99547.31;5016986;28;8854;-76
2023/05/13 01:38:44;;;;;;;;;16.80;16.00;;;;;11.00;56.72;99549.94;5009655;28;8860;-76
2023/05/13 01:41:12;;;;;;;;;18.60;17.80;;;;;10.94;56.75;99556.19;4994856;28;8897;-74
2023/05/13 01:43:42;;;;;;;;;11.80;11.00;;;;;11.04;55.96;99553.34;5010993;28;8864;-75
2023/05/13 01:46:14;;;;;;;;;12.00;11.00;;;;;11.07;56.17;99553.31;5027288;28;8859;-75
2023/05/13 01:48:43;;;;;;;;;18.60;17.00;;;;;11.01;56.02;99556.94;5011863;28;8843;-75
2023/05/13 01:51:13;;;;;;;;;17.20;17.20;;;;;11.03;56.20;99554.25;5031219;28;8863;-75
2023/05/13 01:53:43;;;;;;;;;17.40;17.00;;;;;11.09;56.04;99552.34;5010862;28;8898;-75
2023/05/13 01:56:12;;;;;;;;;15.20;15.20;;;;;11.18;55.48;99554.78;5010046;28;8904;-75
2023/05/13 01:58:41;;;;;;;;;17.00;16.20;;;;;11.20;55.27;99553.84;4991313;28;8866;-75
2023/05/13 02:01:10;;;;;;;;;16.40;14.80;;;;;11.12;55.78;99556.66;4990941;28;8912;-74
2023/05/13 02:03:39;;;;;;;;;14.80;14.80;;;;;11.17;55.47;99555.66;4958912;28;8872;-74
2023/05/13 02:06:08;;;;;;;;;19.40;18.00;;;;;11.16;55.47;99563.59;4991207;28;8967;-74
2023/05/13 02:08:37;;;;;;;;;14.40;12.60;;;;;11.20;55.43;99557.38;4991264;28;8971;-75
2023/05/13 02:11:08;;;;;;;;;15.40;15.40;;;;;11.17;55.20;99562.69;4975310;28;8868;-76
2023/05/13 02:13:37;;;;;;;;;16.00;15.20;;;;;11.21;55.13;99555.59;4969567;28;8878;-76
2023/05/13 02:16:06;;;;;;;;;18.60;18.60;;;;;11.25;55.11;99563.38;5010888;28;8910;-75
2023/05/13 02:18:35;;;;;;;;;17.20;16.20;;;;;11.15;55.49;99554.84;5027021;28;9012;-77
2023/05/13 02:21:04;;;;;;;;;13.20;12.80;;;;;11.08;55.94;99560.28;4994321;28;8883;-75
2023/05/13 02:23:33;;;;;;;;;15.80;15.80;;;;;10.95;56.43;99567.56;5007145;28;8856;-76
2023/05/13 02:26:02;;;;;;;;;16.60;16.60;;;;;10.83;56.44;99563.44;5045994;28;8871;-77
2023/05/13 02:28:32;;;;;;;;;18.20;17.20;;;;;10.73;56.79;99559.28;4998004;28;8947;-75
2023/05/13 02:31:02;;;;;;;;;15.40;15.40;;;;;10.72;56.81;99565.41;5031846;28;8937;-75
2023/05/13 02:33:31;;;;;;;;;17.60;17.00;;;;;10.84;56.34;99561.69;5064989;28;8833;-75
2023/05/13 02:36:00;;;;;;;;;17.20;15.80;;;;;10.76;56.58;99561.84;5064288;28;8887;-76
2023/05/13 02:38:28;;;;;;;;;18.20;16.60;;;;;10.87;56.26;99564.25;5086849;28;8849;-76
2023/05/13 02:40:57;;;;;;;;;17.80;17.00;;;;;10.71;56.40;99563.69;5069922;28;8881;-75
2023/05/13 02:43:27;;;;;;;;;20.40;16.80;;;;;10.72;56.81;99568.03;5020608;28;8828;-75
2023/05/13 02:46:02;;;;;;;;;22.00;21.20;;;;;10.66;56.78;99562.91;5076220;28;8868;-73
2023/05/13 02:48:33;;;;;;;;;13.40;11.60;;;;;10.56;56.67;99554.38;5072149;28;8858;-73
2023/05/13 02:51:02;;;;;;;;;15.00;15.00;;;;;10.51;57.07;99561.47;5076378;28;8897;-74
2023/05/13 02:53:31;;;;;;;;;18.60;18.60;;;;;10.53;56.93;99555.28;5036909;28;9635;-75
2023/05/13 02:56:05;;;;;;;;;16.40;16.20;;;;;10.56;56.48;99549.97;5053355;28;8853;-74
2023/05/13 02:58:35;;;;;;;;;19.00;19.00;;;;;10.41;57.10;99576.56;5069798;28;8862;-76
2023/05/13 03:01:06;;;;;;;;;18.20;16.40;;;;;10.39;57.12;99566.06;5069552;28;8871;-75
2023/05/13 03:03:35;;;;;;;;;18.20;16.60;;;;;10.31;57.38;99564.47;5039217;28;8863;-75
2023/05/13 03:06:04;;;;;;;;;16.60;16.40;;;;;10.33;57.04;99565.31;5106994;28;8854;-75
2023/05/13 03:08:33;;;;;;;;;20.20;18.60;;;;;10.25;57.48;99565.47;5106763;28;8839;-74
2023/05/13 03:11:02;;;;;;;;;20.80;16.20;;;;;10.18;57.68;99563.88;5086226;28;8842;-75
2023/05/13 03:13:31;;;;;;;;;17.40;16.20;;;;;10.08;57.73;99565.78;5082849;28;9657;-75
2023/05/13 03:16:00;;;;;;;;;15.40;15.40;;;;;9.94;58.32;99571.31;5032286;28;8906;-75
2023/05/13 03:18:31;;;;;;;;;18.60;17.00;;;;;9.98;58.31;99570.34;4977650;28;8871;-76
2023/05/13 03:21:01;;;;;;;;;17.60;17.20;;;;;9.98;58.24;99567.72;5029566;28;8849;-75
2023/05/13 03:23:30;;;;;;;;;23.50;22.75;;;;;9.85;58.58;99565.34;5028797;28;8865;-75
2023/05/13 03:26:01;;;;;;;;;17.60;16.40;;;;;9.86;58.21;99573.22;5029459;28;9599;-74
2023/05/13 03:28:32;;;;;;;;;12.40;12.40;;;;;9.78;58.77;99575.97;5029214;28;9043;-75
2023/05/13 03:31:02;;;;;;;;;17.80;17.80;;;;;9.81;58.87;99577.66;5029305;28;9735;-76
2023/05/13 03:33:35;;;;;;;;;18.20;16.00;;;;;9.86;58.61;99585.44;5062366;28;8888;-78
2023/05/13 03:36:05;;;;;;;;;20.80;19.60;;;;;9.72;59.11;99580.44;5008503;28;8878;-76
2023/05/13 03:38:34;;;;;;;;;19.60;17.60;;;;;9.69;59.12;99584.00;5009142;28;8974;-74
2023/05/13 03:41:03;;;;;;;;;17.60;17.60;;;;;9.63;59.30;99581.50;5026028;28;8941;-75
2023/05/13 03:43:32;;;;;;;;;20.20;19.20;;;;;9.67;59.34;99580.53;5046808;28;8849;-76
2023/05/13 03:46:04;;;;;;;;;34.25;32.50;;;;;9.81;58.84;99578.53;5046879;28;8857;-74
2023/05/13 03:48:33;;;;;;;;;18.40;17.60;;;;;9.80;59.21;99583.78;5046314;28;8954;-75
2023/05/13 03:51:05;;;;;;;;;20.00;19.80;;;;;9.72;59.20;99580.44;5046759;28;8856;-75
2023/05/13 03:53:34;;;;;;;;;22.20;16.60;;;;;9.79;59.12;99592.59;5046140;28;8946;-76
2023/05/13 03:56:03;;;;;;;;;16.20;16.20;;;;;9.79;58.87;99589.97;5047643;28;8861;-76
2023/05/13 03:58:32;;;;;;;;;11.60;11.20;;;;;9.77;59.49;99589.13;5013527;28;8879;-75
2023/05/13 04:01:01;;;;;;;;;15.00;14.00;;;;;9.69;59.42;99591.88;5060651;28;8900;-74
2023/05/13 04:03:30;;;;;;;;;41.25;36.25;;;;;9.71;59.52;99594.47;5068067;28;8859;-77
2023/05/13 04:05:59;;;;;;;;;21.20;20.20;;;;;9.95;58.70;99590.53;5049761;28;9449;-76
2023/05/13 04:08:29;;;;;;;;;18.80;18.80;;;;;10.02;58.68;99602.69;5064456;28;9664;-76
2023/05/13 04:10:59;;;;;;;;;15.00;14.00;;;;;10.21;57.89;99598.81;5046257;28;8938;-75
2023/05/13 04:13:27;;;;;;;;;19.20;18.00;;;;;10.23;58.04;99605.81;5045134;28;8929;-74
2023/05/13 04:15:56;;;;;;;;;19.00;18.40;;;;;10.24;57.98;99610.19;5061928;28;8858;-78
2023/05/13 04:18:29;;;;;;;;;50.50;41.00;;;;;10.35;57.39;99611.72;5042368;28;8852;-75
2023/05/13 04:20:58;;;;;;;;;19.60;19.00;;;;;10.35;57.47;99614.34;5047971;28;8912;-76
2023/05/13 04:23:30;;;;;;;;;31.00;27.00;;;;;10.47;57.50;99621.13;5048078;28;8864;-77
2023/05/13 04:25:59;;;;;;;;;22.20;21.40;;;;;10.35;57.70;99631.88;5047881;28;8861;-76
2023/05/13 04:28:30;;;;;;;;;15.20;15.20;;;;;10.37;57.46;99627.44;5065405;28;9778;-76
2023/05/13 04:31:01;;;;;;;;;15.20;14.40;;;;;10.44;57.58;99630.81;5048791;28;8898;-75
2023/05/13 04:33:32;;;;;;;;;18.20;18.20;;;;;10.50;57.19;99634.22;5000726;28;8864;-74
2023/05/13 04:36:01;;;;;;;;;17.20;17.20;;;;;10.55;57.31;99636.72;5052216;28;8868;-75
2023/05/13 04:38:32;;;;;;;;;16.60;16.60;;;;;10.45;57.56;99636.03;5032601;28;8860;-75
2023/05/13 04:41:02;;;;;;;;;15.80;15.20;;;;;10.34;57.85;99633.63;5031038;28;9594;-75
2023/05/13 04:43:37;;;;;;;;;19.60;18.20;;;;;10.34;58.00;99635.38;4998076;28;9615;-74
2023/05/13 04:46:06;;;;;;;;;17.40;16.80;;;;;10.43;57.81;99636.97;5028028;28;8862;-75
2023/05/13 04:48:34;;;;;;;;;18.80;16.80;;;;;10.43;57.90;99645.72;5048037;28;8849;-75
2023/05/13 04:51:04;;;;;;;;;18.80;17.40;;;;;10.50;57.67;99635.94;5047726;28;8972;-75
2023/05/13 04:53:35;;;;;;;;;14.60;14.20;;;;;10.55;57.63;99647.25;5047982;28;8838;-76
2023/05/13 04:56:07;;;;;;;;;18.20;18.20;;;;;10.75;57.33;99642.50;5048471;28;8834;-76
2023/05/13 04:58:35;;;;;;;;;16.60;15.60;;;;;10.73;57.27;99651.28;5063658;28;8899;-76
2023/05/13 05:01:04;;;;;;;;;18.40;17.20;;;;;10.93;57.07;99648.28;5051240;28;8865;-76
2023/05/13 05:03:34;;;;;;;;;19.20;19.20;;;;;11.02;56.44;99648.09;5002754;28;8845;-76
2023/05/13 05:06:03;;;;;;;;;17.00;16.80;;;;;11.16;56.23;99655.66;5019847;28;8822;-75
2023/05/13 05:08:33;;;;;;;;;17.80;17.80;;;;;11.21;55.98;99645.06;5051484;28;8918;-75
2023/05/13 05:11:02;;;;;;;;;20.00;20.00;;;;;11.24;56.25;99648.50;5018926;28;8876;-76
2023/05/13 05:13:33;;;;;;;;;17.40;17.40;;;;;11.36;56.19;99644.72;5040419;28;8838;-75
2023/05/13 05:16:02;;;;;;;;;17.00;17.00;;;;;11.29;55.87;99643.97;5071680;28;9004;-75
2023/05/13 05:18:31;;;;;;;;;16.80;15.60;;;;;11.33;55.85;99642.13;5052724;28;8969;-75
2023/05/13 05:21:01;;;;;;;;;19.60;16.80;;;;;11.56;55.67;99650.38;5069168;28;8951;-76
2023/05/13 05:23:30;;;;;;;;;20.20;20.20;;;;;11.62;54.92;99657.28;5034320;28;8865;-75
2023/05/13 05:26:02;;;;;;;;;15.20;15.20;;;;;11.86;54.05;99653.22;5049590;28;8880;-77
2023/05/13 05:28:43;;;;;;;;;21.00;18.00;;;;;12.06;53.96;99650.09;5063966;28;8872;-76
2023/05/13 05:31:13;;;;;;;;;15.80;13.40;;;;;12.13;53.80;99645.53;5058905;28;8888;-76
2023/05/13 05:33:42;;;;;;;;;14.60;14.00;;;;;12.17;53.35;99641.06;5058347;28;8859;-77
2023/05/13 05:36:12;;;;;;;;;16.40;16.40;;;;;12.20;53.13;99644.47;5035136;28;9057;-76
2023/05/13 05:38:41;;;;;;;;;18.80;18.00;;;;;12.22;53.52;99653.22;5065592;28;8977;-74
2023/05/13 05:41:13;;;;;;;;;17.00;16.20;;;;;12.27;52.87;99653.06;5062097;28;8851;-76
2023/05/13 05:43:42;;;;;;;;;17.40;16.60;;;;;12.31;53.15;99647.66;5063597;28;8858;-76
2023/05/13 05:46:11;;;;;;;;;18.60;16.60;;;;;12.34;53.14;99642.31;5062976;28;8869;-75
2023/05/13 05:48:39;;;;;;;;;16.00;16.00;;;;;12.18;53.29;99630.44;5051414;28;9018;-76
2023/05/13 05:51:09;;;;;;;;;20.40;18.80;;;;;12.34;53.14;99634.41;5047115;28;8831;-76
2023/05/13 05:53:39;;;;;;;;;15.60;15.60;;;;;12.40;52.89;99627.25;5051018;28;8956;-77
2023/05/13 05:56:11;;;;;;;;;16.80;14.40;;;;;12.42;53.24;99639.47;5038216;28;9001;-77
2023/05/13 05:58:41;;;;;;;;;16.20;15.60;;;;;12.47;53.13;99634.94;5045229;28;8880;-74
2023/05/13 06:01:10;;;;;;;;;16.60;16.00;;;;;12.32;53.44;99645.91;5026679;28;8890;-74
2023/05/13 06:03:39;;;;;;;;;14.20;12.00;;;;;12.30;53.55;99648.59;5032513;28;8949;-75
2023/05/13 06:06:08;;;;;;;;;15.60;15.40;;;;;12.50;53.01;99648.06;5038471;28;8844;-79
2023/05/13 06:08:36;;;;;;;;;16.00;15.80;;;;;12.53;52.68;99658.50;5047397;28;8966;-77
2023/05/13 06:11:08;;;;;;;;;20.00;19.00;;;;;12.57;52.63;99664.56;5038430;28;8972;-77
2023/05/13 06:13:37;;;;;;;;;19.60;18.40;;;;;12.55;52.47;99669.03;5011007;28;8895;-77
2023/05/13 06:16:08;;;;;;;;;13.80;13.80;;;;;12.70;52.17;99665.09;5048300;28;8847;-76
2023/05/13 06:18:39;;;;;;;;;16.40;15.20;;;;;12.74;52.17;99664.97;5013941;28;8852;-78
2023/05/13 06:21:08;;;;;;;;;15.60;15.60;;;;;12.81;51.76;99670.94;5051695;28;8948;-77
2023/05/13 06:23:37;;;;;;;;;16.00;16.00;;;;;12.89;51.71;99671.63;5069246;28;8847;-79
2023/05/13 06:26:06;;;;;;;;;16.60;15.80;;;;;13.08;51.23;99677.22;5040835;28;8862;-78
2023/05/13 06:28:35;;;;;;;;;15.80;15.80;;;;;13.26;50.95;99678.47;5051558;28;8865;-77
2023/05/13 06:31:04;;;;;;;;;16.60;14.40;;;;;13.45;50.13;99677.88;5055145;28;8842;-80
2023/05/13 06:33:35;;;;;;;;;21.20;18.40;;;;;13.50;49.96;99679.47;5067772;28;8858;-79
2023/05/13 06:36:04;;;;;;;;;17.40;16.80;;;;;13.77;49.52;99689.22;5030213;28;8996;-80
2023/05/13 06:38:34;;;;;;;;;16.20;14.60;;;;;13.98;49.25;99690.34;5030178;28;8845;-79
2023/05/13 06:41:03;;;;;;;;;16.60;16.20;;;;;14.04;48.95;99691.00;5047051;28;9005;-79
2023/05/13 06:43:37;;;;;;;;;16.60;15.20;;;;;14.01;48.87;99682.31;5030087;28;8889;-78
2023/05/13 06:46:21;;;;;;;;;18.40;18.40;;;;;14.13;48.70;99692.50;5029674;28;9095;-75
2023/05/13 06:48:52;;;;;;;;;22.00;18.40;;;;;14.34;48.77;99685.63;5009285;28;8848;-77
2023/05/13 06:51:21;;;;;;;;;16.60;15.40;;;;;14.54;48.30;99692.84;5000296;28;8867;-74
2023/05/13 06:53:50;;;;;;;;;21.20;20.00;;;;;14.42;48.32;99680.91;5045037;28;8873;-74
2023/05/13 06:56:21;;;;;;;;;19.40;18.20;;;;;14.63;48.44;99684.59;4983115;28;8899;-76
2023/05/13 06:58:50;;;;;;;;;20.40;19.00;;;;;14.74;48.20;99678.09;5028351;28;8872;-75
2023/05/13 07:01:19;;;;;;;;;20.60;19.20;;;;;14.99;47.28;99680.69;5046161;28;8837;-77
2023/05/13 07:03:48;;;;;;;;;16.00;15.80;;;;;15.11;47.12;99674.94;5028394;28;8885;-75
2023/05/13 07:06:19;;;;;;;;;19.20;18.00;;;;;15.25;47.12;99677.94;5031494;28;8848;-76
2023/05/13 07:08:48;;;;;;;;;16.20;16.20;;;;;15.51;46.08;99668.13;5068548;28;8850;-74
2023/05/13 07:11:17;;;;;;;;;19.80;17.00;;;;;15.52;46.16;99663.69;5045073;28;8835;-76
2023/05/13 07:13:46;;;;;;;;;16.00;16.00;;;;;15.64;45.65;99673.81;5048937;28;8885;-76
2023/05/13 07:16:15;;;;;;;;;16.80;16.00;;;;;15.74;45.79;99682.28;5046657;28;8854;-74
2023/05/13 07:18:44;;;;;;;;;18.80;18.40;;;;;15.89;45.19;99671.03;5052605;28;8891;-74
2023/05/13 07:21:13;;;;;;;;;22.00;18.00;;;;;15.81;45.32;99675.78;5050481;28;8864;-76
2023/05/13 07:23:43;;;;;;;;;18.40;17.40;;;;;15.90;45.26;99671.91;5063657;28;8845;-74
2023/05/13 07:26:12;;;;;;;;;15.60;15.60;;;;;15.83;45.21;99672.16;5012296;28;10000;-74
2023/05/13 07:28:42;;;;;;;;;15.80;15.80;;;;;16.01;44.61;99675.81;5060396;28;8875;-75
2023/05/13 07:31:11;;;;;;;;;19.00;19.00;;;;;16.14;45.03;99670.88;5058538;28;9765;-75
2023/05/13 07:33:40;;;;;;;;;16.40;15.60;;;;;16.16;44.64;99678.78;5055638;28;8894;-74
2023/05/13 07:36:09;;;;;;;;;13.60;13.60;;;;;16.25;44.48;99683.69;5058256;28;8869;-78
2023/05/13 07:38:38;;;;;;;;;18.20;17.40;;;;;16.38;43.86;99684.91;5043945;28;8862;-80
2023/05/13 07:41:08;;;;;;;;;15.00;15.00;;;;;16.38;44.02;99681.41;5064114;28;9000;-79
2023/05/13 07:43:39;;;;;;;;;15.20;15.20;;;;;16.47;43.84;99688.97;5051856;28;8878;-79
2023/05/13 07:46:08;;;;;;;;;17.60;16.40;;;;;16.51;43.57;99695.88;5051502;28;8839;-79
2023/05/13 07:48:37;;;;;;;;;13.80;13.80;;;;;16.51;43.64;99689.69;5062419;28;8858;-76
2023/05/13 07:51:06;;;;;;;;;17.60;17.00;;;;;16.41;43.88;99703.31;5046235;28;8861;-72
2023/05/13 07:53:35;;;;;;;;;15.80;15.80;;;;;16.30;43.65;99705.56;5046377;28;9580;-74
2023/05/13 07:56:05;;;;;;;;;15.80;15.80;;;;;16.40;43.51;99701.63;5052118;28;8958;-72
2023/05/13 07:58:36;;;;;;;;;15.00;14.60;;;;;16.45;43.39;99709.41;5046890;28;8842;-72
2023/05/13 08:01:06;;;;;;;;;15.00;14.80;;;;;16.69;42.93;99710.13;5058628;28;8938;-72
2023/05/13 08:03:35;;;;;;;;;16.60;15.60;;;;;16.65;43.58;99713.00;5012767;28;8876;-74
2023/05/13 08:06:05;;;;;;;;;14.20;13.80;;;;;16.75;43.09;99709.00;5050959;28;9116;-72
2023/05/13 08:08:34;;;;;;;;;13.40;13.40;;;;;16.88;42.94;99710.19;5051511;28;8927;-71
2023/05/13 08:11:03;;;;;;;;;12.60;12.60;;;;;16.83;43.54;99711.31;5053820;28;8915;-74
2023/05/13 08:13:32;;;;;;;;;17.20;17.20;;;;;16.91;43.26;99714.47;5052907;28;9815;-75
2023/05/13 08:16:02;;;;;;;;;16.80;15.80;;;;;17.02;43.24;99704.25;5058328;28;8856;-73
2023/05/13 08:18:31;;;;;;;;;15.40;15.40;;;;;17.10;43.12;99714.56;5044239;28;8849;-71
2023/05/13 08:21:00;;;;;;;;;14.00;14.00;;;;;17.16;42.75;99716.91;5008503;28;8881;-72
2023/05/13 08:23:29;;;;;;;;;16.00;15.80;;;;;17.33;42.80;99718.84;5077291;28;8834;-73
2023/05/13 08:26:13;;;;;;;;;14.80;14.00;;;;;17.36;42.39;99716.91;5024165;28;8889;-73
2023/05/13 08:28:41;;;;;;;;;14.80;14.00;;;;;17.50;42.23;99708.28;5083988;28;8896;-73
2023/05/13 08:31:13;;;;;;;;;16.60;14.80;;;;;17.61;42.34;99709.53;5084180;28;8861;-74
2023/05/13 08:33:43;;;;;;;;;16.00;13.20;;;;;17.65;42.17;99724.44;5083649;28;8853;-73
2023/05/13 08:36:12;;;;;;;;;16.80;16.40;;;;;17.77;41.91;99713.19;5028790;28;8947;-73
2023/05/13 08:38:42;;;;;;;;;13.60;13.60;;;;;17.77;42.13;99723.84;5047339;28;8860;-76
2023/05/13 08:41:13;;;;;;;;;14.80;14.60;;;;;17.68;42.13;99711.84;5047480;28;8876;-74
2023/05/13 08:43:42;;;;;;;;;13.40;13.40;;;;;17.92;42.19;99708.94;5072709;28;8960;-72
2023/05/13 08:46:16;;;;;;;;;16.00;13.80;;;;;17.99;41.35;99707.72;5084047;28;8870;-75
2023/05/13 08:48:47;;;;;;;;;10.80;10.60;;;;;17.77;41.84;99711.41;5084280;28;8893;-81
2023/05/13 08:51:16;;;;;;;;;12.40;12.40;;;;;17.97;41.04;99715.75;5083704;28;8876;-74
2023/05/13 08:53:46;;;;;;;;;15.60;13.20;;;;;18.00;41.07;99711.22;5083880;28;9568;-80
2023/05/13 08:56:15;;;;;;;;;13.60;13.00;;;;;18.04;40.97;99710.16;5084517;28;8866;-74
2023/05/13 08:58:44;;;;;;;;;19.00;15.60;;;;;18.12;41.11;99708.00;5084437;28;8873;-76
2023/05/13 09:01:16;;;;;;;;;14.60;14.60;;;;;18.09;41.66;99702.81;5059973;28;8884;-73
2023/05/13 09:03:55;;;;;;;;;18.80;18.40;;;;;18.10;41.73;99704.53;5051225;28;8889;-72
2023/05/13 09:06:24;;;;;;;;;16.20;14.60;;;;;18.06;41.88;99701.19;5047442;28;9606;-77
2023/05/13 09:08:53;;;;;;;;;15.60;14.20;;;;;17.93;41.81;99692.91;5052485;28;8843;-70
2023/05/13 09:11:22;;;;;;;;;15.20;13.40;;;;;18.01;42.23;99703.16;5064986;28;8897;-74
2023/05/13 09:13:58;;;;;;;;;15.80;15.00;;;;;18.06;41.40;99689.66;5031236;28;8858;-74
2023/05/13 09:16:31;;;;;;;;;14.40;14.40;;;;;17.62;41.81;99690.00;5062386;28;8877;-72
2023/05/13 09:19:01;;;;;;;;;14.20;13.20;;;;;17.92;41.93;99706.28;5046684;28;8931;-74
2023/05/13 09:21:31;;;;;;;;;14.40;14.40;;;;;18.01;41.37;99702.31;5028607;28;8856;-75
2023/05/13 09:24:08;;;;;;;;;16.80;16.80;;;;;18.20;41.49;99689.00;5062105;28;8913;-76
2023/05/13 09:26:42;;;;;;;;;13.20;13.00;;;;;18.22;41.00;99692.44;5066526;28;8839;-78
2023/05/13 09:29:22;;;;;;;;;13.60;13.60;;;;;18.50;40.65;99692.75;5066941;28;8931;-81
2023/05/13 09:31:55;;;;;;;;;15.20;13.80;;;;;18.46;41.06;99685.84;5063939;28;8851;-78
2023/05/13 09:34:29;;;;;;;;;10.00;10.00;;;;;18.60;39.15;99682.47;5065065;28;8851;-76
2023/05/13 09:37:01;;;;;;;;;12.80;12.80;;;;;18.66;39.12;99683.94;5014591;28;8959;-78
2023/05/13 09:39:31;;;;;;;;;10.00;9.20;;;;;18.73;39.28;99680.03;5065223;28;8982;-77
2023/05/13 09:42:02;;;;;;;;;14.80;13.80;;;;;18.85;39.54;99683.88;5066459;28;8850;-76
2023/05/13 09:44:33;;;;;;;;;13.80;12.80;;;;;18.64;39.54;99685.84;5043315;28;8931;-78
2023/05/13 09:47:04;;;;;;;;;11.80;10.80;;;;;18.66;39.27;99676.81;5029339;28;9011;-77
2023/05/13 09:49:34;;;;;;;;;9.00;8.00;;;;;18.76;38.71;99677.19;5029661;28;8889;-78
2023/05/13 09:52:08;;;;;;;;;11.80;11.40;;;;;18.66;39.20;99670.63;5003579;28;9792;-75
2023/05/13 09:54:37;;;;;;;;;13.40;11.60;;;;;18.61;39.28;99668.22;5015106;28;8874;-78
2023/05/13 09:57:07;;;;;;;;;3.40;2.20;;;;;18.68;39.73;99676.75;5027332;28;8875;-77
2023/05/13 09:59:36;;;;;;;;;14.00;12.40;;;;;18.70;38.91;99664.22;5010078;28;8856;-75
2023/05/13 10:02:09;;;;;;;;;10.60;10.40;;;;;18.76;38.33;99653.22;5026643;28;8860;-71
2023/05/13 10:04:38;;;;;;;;;8.80;8.80;;;;;18.90;38.39;99656.03;5029042;28;9740;-72
2023/05/13 10:07:08;;;;;;;;;11.60;10.60;;;;;18.92;37.59;99667.47;5011047;28;8848;-71
2023/05/13 10:09:38;;;;;;;;;8.80;8.80;;;;;18.80;38.05;99664.59;5029592;28;8849;-71
2023/05/13 10:12:10;;;;;;;;;9.60;9.60;;;;;18.97;37.48;99655.72;5029907;28;8847;-72
2023/05/13 10:14:40;;;;;;;;;9.80;9.80;;;;;19.05;37.46;99664.16;5047097;28;8907;-71
2023/05/13 10:17:11;;;;;;;;;9.20;9.20;;;;;19.09;36.82;99663.91;5068749;28;9690;-71
2023/05/13 10:19:40;;;;;;;;;9.60;9.40;;;;;19.28;36.88;99661.09;5067341;28;8866;-72
2023/05/13 10:22:11;;;;;;;;;8.60;8.60;;;;;19.35;36.69;99660.72;5048401;28;9022;-72
2023/05/13 10:24:42;;;;;;;;;11.80;10.60;;;;;19.36;36.53;99647.31;5051317;28;8899;-72
2023/05/13 10:27:12;;;;;;;;;8.00;8.00;;;;;19.47;37.14;99657.41;5048428;28;8895;-71
2023/05/13 10:29:43;;;;;;;;;10.40;9.80;;;;;19.57;37.24;99655.09;5048747;28;8946;-71
2023/05/13 10:32:14;;;;;;;;;11.00;11.00;;;;;19.51;37.20;99656.28;5067831;28;8830;-71
2023/05/13 10:34:45;;;;;;;;;10.00;10.00;;;;;19.66;37.35;99649.25;5048499;28;8887;-73
2023/05/13 10:37:42;;;;;;;;;7.40;7.40;;;;;19.48;36.50;99651.09;5048729;28;8873;-70
2023/05/13 10:40:43;;;;;;;;;7.80;7.80;;;;;19.60;36.13;99652.28;4967232;28;8874;-71
2023/05/13 10:43:17;;;;;;;;;8.00;8.00;;;;;19.73;36.06;99663.09;4890691;29;8890;-71
2023/05/13 10:45:47;;;;;;;;;8.60;7.60;;;;;19.83;35.32;99661.63;4909354;29;8903;-71
2023/05/13 10:48:19;;;;;;;;;9.60;9.60;;;;;19.79;35.85;99662.75;4893503;29;8855;-72
2023/05/13 10:50:52;;;;;;;;;10.00;10.00;;;;;19.83;36.27;99659.78;4893319;29;8852;-73
2023/05/13 10:53:24;;;;;;;;;11.80;10.60;;;;;20.00;36.81;99665.97;4894105;29;9017;-74
2023/05/13 10:55:55;;;;;;;;;13.00;9.60;;;;;20.05;36.38;99662.09;4893424;29;8910;-81
2023/05/13 10:58:32;;;;;;;;;10.20;10.00;;;;;20.07;35.88;99667.34;4878002;29;9359;-80
2023/05/13 11:01:15;;;;;;;;;10.40;10.20;;;;;20.22;35.04;99673.59;4910412;29;8945;-79
2023/05/13 11:03:53;;;;;;;;;9.80;9.40;;;;;20.41;35.09;99673.38;4910076;29;8836;-77
2023/05/13 11:06:25;;;;;;;;;8.60;8.60;;;;;20.55;35.05;99670.72;4909742;29;8868;-79
2023/05/13 11:08:55;;;;;;;;;10.60;8.80;;;;;20.62;34.46;99663.22;4909835;29;8897;-79
2023/05/13 11:11:34;;;;;;;;;8.80;8.80;;;;;20.82;33.87;99664.63;4897262;29;8921;-77
2023/05/13 11:14:08;;;;;;;;;8.20;8.20;;;;;21.02;33.77;99658.09;4908133;29;8905;-78
2023/05/13 11:16:37;;;;;;;;;8.60;8.60;;;;;21.11;32.99;99651.31;4903126;28;9037;-78
2023/05/13 11:19:20;;;;;;;;;11.60;11.60;;;;;21.06;33.69;99647.09;4970711;28;8864;-78
2023/05/13 11:21:52;;;;;;;;;10.40;9.80;;;;;20.95;34.02;99641.56;5046941;28;8872;-76
2023/05/13 11:24:22;;;;;;;;;8.00;8.00;;;;;21.07;33.41;99639.97;5056591;28;8957;-79
2023/05/13 11:26:53;;;;;;;;;10.00;8.80;;;;;21.32;33.68;99633.91;5048107;28;8868;-79
2023/05/13 11:29:30;;;;;;;;;10.00;9.00;;;;;21.40;32.06;99636.91;5048232;28;8926;-77
2023/05/13 11:32:00;;;;;;;;;9.80;8.80;;;;;21.56;32.08;99633.25;5048541;28;8975;-76
2023/05/13 11:34:31;;;;;;;;;9.80;8.40;;;;;21.55;32.74;99634.22;5061204;28;8854;-75
2023/05/13 11:37:08;;;;;;;;;8.80;8.60;;;;;21.55;32.54;99636.91;5063381;28;9020;-76
2023/05/13 11:39:40;;;;;;;;;8.40;8.40;;;;;21.90;32.95;99633.72;5023209;28;8871;-75
2023/05/13 11:42:10;;;;;;;;;10.00;8.80;;;;;21.97;32.21;99632.34;5023878;28;8855;-78